createdAt,value
2023-01-11T00:01:37.645Z,24.80
2023-01-11T00:04:07.197Z,25.60
2023-01-11T00:06:35.169Z,26.67
2023-01-11T00:09:03.249Z,32.63
2023-01-11T00:11:33.850Z,25.17
2023-01-11T00:14:01.967Z,21.63
2023-01-11T00:16:30.290Z,46.60
2023-01-11T00:18:58.323Z,36.60
2023-01-11T00:21:28.033Z,23.77
2023-01-11T00:23:56.099Z,25.37
2023-01-11T00:26:26.493Z,27.87
2023-01-11T00:28:54.766Z,30.33
2023-01-11T00:31:33.117Z,23.90
2023-01-11T00:34:01.441Z,27.83
2023-01-11T00:36:30.966Z,24.27
2023-01-11T00:38:59.112Z,33.20
2023-01-11T00:41:44.110Z,21.77
2023-01-11T00:44:30.176Z,31.07
2023-01-11T00:47:16.578Z,29.67
2023-01-11T00:49:44.897Z,24.77
2023-01-11T00:52:14.425Z,25.10
2023-01-11T00:54:43.679Z,24.33
2023-01-11T00:57:11.889Z,33.97
2023-01-11T00:59:40.742Z,30.37
2023-01-11T01:02:10.417Z,32.07
2023-01-11T01:04:39.343Z,31.97
2023-01-11T01:07:08.814Z,27.43
2023-01-11T01:09:39.076Z,31.23
2023-01-11T01:12:09.483Z,30.00
2023-01-11T01:14:36.809Z,35.27
2023-01-11T01:17:08.117Z,16.80
2023-01-11T01:19:37.910Z,31.73
2023-01-11T01:22:09.266Z,21.67
2023-01-11T01:24:39.215Z,21.27
2023-01-11T01:27:07.299Z,36.87
2023-01-11T01:29:35.330Z,32.43
2023-01-11T01:32:03.376Z,19.00
2023-01-11T01:34:31.728Z,42.27
2023-01-11T01:36:59.719Z,34.57
2023-01-11T01:39:28.076Z,23.47
2023-01-11T01:41:57.615Z,37.43
2023-01-11T01:44:58.224Z,20.10
2023-01-11T01:47:30.984Z,19.97
2023-01-11T01:50:00.290Z,23.67
2023-01-11T01:52:29.412Z,19.00
2023-01-11T01:55:03.181Z,20.00
2023-01-11T01:57:35.805Z,16.30
2023-01-11T02:00:07.808Z,22.17
2023-01-11T02:02:38.313Z,19.57
2023-01-11T02:05:08.466Z,16.30
2023-01-11T02:07:40.715Z,25.03
2023-01-11T02:10:11.202Z,13.63
2023-01-11T02:12:43.307Z,8.13
2023-01-11T02:15:12.968Z,17.23
2023-01-11T02:17:41.385Z,17.53
2023-01-11T02:20:33.299Z,18.53
2023-01-11T02:23:44.818Z,16.53
2023-01-11T02:26:40.190Z,24.80
2023-01-11T02:29:17.466Z,18.00
2023-01-11T02:31:52.635Z,10.47
2023-01-11T02:34:33.431Z,18.27
2023-01-11T02:37:12.824Z,17.50
2023-01-11T02:39:53.111Z,15.40
2023-01-11T02:42:44.892Z,19.17
2023-01-11T02:45:22.323Z,21.13
2023-01-11T02:47:55.370Z,22.13
2023-01-11T02:50:30.244Z,26.17
2023-01-11T02:53:01.774Z,20.50
2023-01-11T02:55:36.018Z,21.90
2023-01-11T02:58:07.317Z,30.97
2023-01-11T03:00:39.166Z,21.43
2023-01-11T03:03:10.324Z,29.07
2023-01-11T03:05:45.182Z,18.80
2023-01-11T03:08:31.647Z,26.97
2023-01-11T03:11:06.448Z,25.13
2023-01-11T03:13:46.752Z,20.90
2023-01-11T03:16:24.390Z,26.40
2023-01-11T03:18:59.215Z,20.63
2023-01-11T03:21:39.809Z,32.97
2023-01-11T03:24:16.793Z,20.47
2023-01-11T03:26:54.856Z,24.47
2023-01-11T03:29:30.533Z,22.93
2023-01-11T03:32:11.923Z,18.43
2023-01-11T03:34:46.822Z,16.03
2023-01-11T03:37:21.851Z,15.57
2023-01-11T03:39:57.014Z,18.30
2023-01-11T03:42:28.832Z,15.90
2023-01-11T03:44:58.936Z,25.53
2023-01-11T03:47:32.973Z,16.80
2023-01-11T03:50:06.004Z,30.27
2023-01-11T03:52:38.546Z,15.37
2023-01-11T03:55:10.290Z,32.37
2023-01-11T03:57:43.447Z,23.00
2023-01-11T04:00:17.821Z,30.43
2023-01-11T04:02:47.237Z,26.20
2023-01-11T04:05:15.241Z,30.67
2023-01-11T04:07:43.576Z,33.17
2023-01-11T04:10:12.731Z,17.93
2023-01-11T04:12:40.618Z,23.87
2023-01-11T04:15:10.479Z,24.43
2023-01-11T04:17:38.468Z,34.13
2023-01-11T04:20:10.373Z,33.80
2023-01-11T04:22:38.419Z,19.17
2023-01-11T04:25:09.076Z,33.63
2023-01-11T04:27:37.254Z,24.60
2023-01-11T04:30:06.314Z,33.70
2023-01-11T04:32:34.281Z,17.40
2023-01-11T04:35:02.660Z,20.43
2023-01-11T04:37:32.357Z,8.33
2023-01-11T04:40:00.407Z,11.60
2023-01-11T04:42:27.416Z,24.23
2023-01-11T04:44:55.427Z,19.43
2023-01-11T04:47:25.198Z,22.67
2023-01-11T04:49:53.371Z,20.57
2023-01-11T04:52:21.990Z,17.97
2023-01-11T04:54:52.577Z,28.73
2023-01-11T04:57:20.590Z,14.47
2023-01-11T04:59:48.823Z,11.17
2023-01-11T05:02:17.244Z,17.23
2023-01-11T05:04:45.308Z,23.67
2023-01-11T05:07:13.404Z,25.30
2023-01-11T05:09:41.519Z,11.97
2023-01-11T05:12:10.925Z,16.37
2023-01-11T05:14:38.893Z,15.57
2023-01-11T05:17:06.807Z,23.33
2023-01-11T05:19:34.766Z,12.33
2023-01-11T05:22:02.718Z,13.60
2023-01-11T05:24:30.767Z,20.67
2023-01-11T05:26:58.895Z,14.97
2023-01-11T05:29:28.822Z,15.40
2023-01-11T05:31:57.095Z,10.77
2023-01-11T05:34:25.107Z,12.53
2023-01-11T05:36:53.210Z,20.30
2023-01-11T05:39:23.080Z,12.13
2023-01-11T05:41:51.094Z,20.23
2023-01-11T05:44:37.390Z,17.07
2023-01-11T05:47:06.736Z,24.00
2023-01-11T05:49:34.648Z,19.80
2023-01-11T05:52:02.660Z,25.47
2023-01-11T05:54:30.642Z,21.80
2023-01-11T05:56:59.022Z,21.20
2023-01-11T05:59:27.002Z,27.17
2023-01-11T06:01:55.032Z,14.23
2023-01-11T06:04:24.568Z,19.10
2023-01-11T06:06:52.796Z,16.80
2023-01-11T06:09:20.843Z,14.87
2023-01-11T06:11:50.631Z,19.07
2023-01-11T06:14:18.791Z,23.90
2023-01-11T06:16:47.133Z,13.73
2023-01-11T06:19:15.217Z,19.77
2023-01-11T06:21:45.046Z,25.17
2023-01-11T06:24:13.136Z,15.40
2023-01-11T06:26:41.101Z,13.20
2023-01-11T06:29:09.202Z,20.70
2023-01-11T06:31:37.309Z,27.87
2023-01-11T06:34:05.325Z,21.00
2023-01-11T06:36:33.259Z,13.30
2023-01-11T06:39:03.779Z,19.00
2023-01-11T06:41:32.139Z,16.40
2023-01-11T06:44:00.136Z,24.73
2023-01-11T06:46:29.154Z,21.40
2023-01-11T06:48:57.489Z,13.40
2023-01-11T06:51:25.503Z,20.10
2023-01-11T06:53:53.435Z,16.90
2023-01-11T06:56:23.681Z,19.53
2023-01-11T06:58:52.654Z,14.83
2023-01-11T07:01:20.920Z,20.40
2023-01-11T07:03:49.232Z,18.93
2023-01-11T07:06:17.212Z,15.53
2023-01-11T07:08:45.263Z,23.00
2023-01-11T07:11:13.860Z,24.07
2023-01-11T07:13:43.424Z,16.97
2023-01-11T07:16:11.669Z,15.13
2023-01-11T07:18:39.737Z,17.80
2023-01-11T07:21:08.001Z,10.07
2023-01-11T07:23:36.136Z,20.23
2023-01-11T07:26:04.274Z,13.33
2023-01-11T07:28:32.280Z,12.13
2023-01-11T07:31:01.897Z,15.67
2023-01-11T07:33:29.935Z,20.57
2023-01-11T07:36:00.832Z,14.27
2023-01-11T07:38:29.876Z,12.10
2023-01-11T07:40:57.965Z,17.70
2023-01-11T07:43:24.918Z,13.23
2023-01-11T07:45:54.338Z,8.83
2023-01-11T07:48:27.056Z,14.67
2023-01-11T07:50:56.124Z,14.43
2023-01-11T07:53:26.731Z,8.47
2023-01-11T07:55:56.476Z,7.90
2023-01-11T07:58:24.950Z,14.50
2023-01-11T08:00:53.079Z,13.37
2023-01-11T08:03:21.354Z,16.93
2023-01-11T08:05:52.812Z,9.70
2023-01-11T08:08:21.131Z,19.00
2023-01-11T08:11:10.276Z,22.63
2023-01-11T08:13:54.949Z,11.80
2023-01-11T08:16:23.010Z,10.80
2023-01-11T08:18:51.255Z,20.60
2023-01-11T08:21:21.407Z,26.70
2023-01-11T08:23:49.485Z,17.30
2023-01-11T08:26:18.255Z,19.27
2023-01-11T08:28:46.636Z,22.43
2023-01-11T08:31:15.212Z,16.23
2023-01-11T08:33:43.394Z,17.20
2023-01-11T08:36:13.489Z,15.10
2023-01-11T08:38:43.109Z,23.97
2023-01-11T08:41:11.839Z,21.43
2023-01-11T08:43:39.872Z,20.73
2023-01-11T08:46:08.287Z,15.60
2023-01-11T08:48:36.928Z,15.77
2023-01-11T08:51:05.047Z,20.60
2023-01-11T08:53:33.094Z,19.23
2023-01-11T08:56:02.641Z,14.87
2023-01-11T08:58:30.679Z,14.53
2023-01-11T09:00:59.322Z,16.70
2023-01-11T09:03:28.709Z,21.50
2023-01-11T09:06:00.049Z,19.10
2023-01-11T09:08:29.128Z,18.23
2023-01-11T09:10:59.919Z,21.73
2023-01-11T09:13:29.998Z,22.80
2023-01-11T09:15:59.458Z,24.93
2023-01-11T09:18:27.575Z,21.43
2023-01-11T09:20:56.234Z,13.73
2023-01-11T09:23:24.574Z,19.13
2023-01-11T09:25:56.407Z,22.80
2023-01-11T09:28:24.448Z,15.60
2023-01-11T09:30:55.948Z,28.17
2023-01-11T09:33:24.159Z,17.60
2023-01-11T09:35:53.209Z,12.97
2023-01-11T09:38:21.399Z,22.57
2023-01-11T09:41:00.506Z,22.90
2023-01-11T09:43:31.437Z,15.93
2023-01-11T09:46:08.977Z,29.00
2023-01-11T09:48:43.605Z,14.47
2023-01-11T09:51:15.900Z,25.23
2023-01-11T09:53:49.679Z,22.20
2023-01-11T09:56:25.123Z,26.53
2023-01-11T09:59:09.652Z,8.60
2023-01-11T10:01:46.542Z,13.40
2023-01-11T10:04:33.118Z,25.73
2023-01-11T10:07:19.917Z,19.10
2023-01-11T10:18:30.651Z,23.00
2023-01-11T10:19:33.510Z,23.03
2023-01-11T10:21:58.254Z,17.13
2023-01-11T10:24:30.288Z,29.03
2023-01-11T10:27:06.689Z,20.10
2023-01-11T10:29:51.687Z,23.17
2023-01-11T10:32:34.795Z,21.67
2023-01-11T10:35:41.356Z,12.90
2023-01-11T10:38:41.098Z,14.73
2023-01-11T10:41:26.439Z,22.50
2023-01-11T10:44:05.303Z,22.17
2023-01-11T10:46:39.764Z,27.97
2023-01-11T10:49:26.956Z,17.83
2023-01-11T10:52:00.364Z,23.97
2023-01-11T10:54:35.141Z,19.57
2023-01-11T10:57:29.162Z,17.07
2023-01-11T11:00:18.575Z,24.13
2023-01-11T11:06:17.547Z,11.10
2023-01-11T11:08:52.278Z,29.37
2023-01-11T11:11:23.933Z,25.00
2023-01-11T11:13:58.910Z,16.53
2023-01-11T11:16:42.218Z,25.37
2023-01-11T11:19:13.491Z,16.27
2023-01-11T11:21:43.868Z,23.70
2023-01-11T11:24:22.491Z,28.20
2023-01-11T11:26:59.452Z,42.67
2023-01-11T11:29:30.805Z,29.93
2023-01-11T11:32:03.858Z,41.73
2023-01-11T11:34:32.521Z,28.33
2023-01-11T11:37:02.724Z,27.77
2023-01-11T11:39:36.862Z,31.93
2023-01-11T11:42:08.874Z,33.93
2023-01-11T11:44:36.974Z,30.83
2023-01-11T11:47:06.985Z,30.93
2023-01-11T11:49:37.057Z,36.30
2023-01-11T11:52:08.483Z,24.63
2023-01-11T11:54:43.419Z,29.63
2023-01-11T11:57:28.327Z,28.43
2023-01-11T12:00:04.543Z,27.00
2023-01-11T12:02:35.690Z,23.63
2023-01-11T12:05:27.268Z,29.97
2023-01-11T12:08:03.738Z,32.53
2023-01-11T12:10:36.973Z,32.47
2023-01-11T12:13:05.526Z,28.90
2023-01-11T12:15:40.551Z,28.50
2023-01-11T12:18:25.225Z,30.07
2023-01-11T12:20:53.725Z,41.60
2023-01-11T12:23:24.824Z,21.63
2023-01-11T12:26:26.451Z,39.57
2023-01-11T12:30:02.491Z,34.67
2023-01-11T12:32:58.273Z,37.00
2023-01-11T12:35:59.216Z,41.03
2023-01-11T12:39:05.536Z,31.90
2023-01-11T12:41:59.455Z,22.13
2023-01-11T12:44:46.840Z,44.17
2023-01-11T12:47:59.220Z,21.23
2023-01-11T12:51:14.751Z,39.90
2023-01-11T12:54:05.052Z,38.97
2023-01-11T12:56:52.783Z,40.23
2023-01-11T12:59:41.663Z,25.60
2023-01-11T13:02:28.495Z,29.07
2023-01-11T13:05:14.998Z,20.07
2023-01-11T13:08:22.782Z,28.77
2023-01-11T13:11:03.033Z,22.27
2023-01-11T13:13:46.491Z,13.47
2023-01-11T13:16:19.096Z,24.67
2023-01-11T13:19:27.787Z,9.87
2023-01-11T13:22:30.719Z,4.53
2023-01-11T13:25:06.686Z,7.63
2023-01-11T13:30:42.990Z,21.53
2023-01-11T13:33:18.627Z,22.03
2023-01-11T13:35:52.634Z,13.93
2023-01-11T13:38:35.566Z,22.53
2023-01-11T13:41:14.974Z,10.00
2023-01-11T13:43:48.601Z,8.50
2023-01-11T13:46:26.369Z,30.13
2023-01-11T13:49:01.892Z,16.97
2023-01-11T13:51:38.290Z,12.20
2023-01-11T13:54:14.171Z,19.83
2023-01-11T13:56:44.529Z,15.53
2023-01-11T13:59:18.296Z,13.37
2023-01-11T14:01:55.613Z,22.70
2023-01-11T14:04:31.854Z,23.13
2023-01-11T14:07:11.608Z,22.60
2023-01-11T14:10:21.398Z,17.37
2023-01-11T14:13:06.115Z,12.70
2023-01-11T14:15:47.839Z,32.37
2023-01-11T14:18:30.802Z,15.50
2023-01-11T14:21:25.109Z,24.27
2023-01-11T14:23:55.012Z,20.40
2023-01-11T14:26:41.977Z,22.53
2023-01-11T14:29:28.721Z,19.93
2023-01-11T14:32:17.781Z,34.57
2023-01-11T14:35:05.239Z,22.17
2023-01-11T14:37:58.499Z,49.23
2023-01-11T14:41:08.139Z,34.83
2023-01-11T14:44:11.807Z,24.80
2023-01-11T14:47:07.267Z,15.13
2023-01-11T14:50:05.085Z,17.93
2023-01-11T14:52:40.842Z,15.60
2023-01-11T14:55:17.586Z,0.00
2023-01-11T14:58:00.475Z,13.40
2023-01-11T15:01:20.979Z,13.20
2023-01-11T15:03:57.333Z,48.07
2023-01-11T15:06:25.815Z,32.70
2023-01-11T15:08:56.942Z,28.70
2023-01-11T15:11:36.913Z,27.70
2023-01-11T15:14:25.202Z,29.33
2023-01-11T15:17:13.647Z,30.97
2023-01-11T15:19:44.667Z,24.23
2023-01-11T15:22:29.221Z,0.00
2023-01-11T15:25:22.901Z,20.87
2023-01-11T15:27:51.721Z,0.00
2023-01-11T15:30:39.984Z,11.47
2023-01-11T15:33:32.439Z,0.00
2023-01-11T15:36:06.822Z,39.50
2023-01-11T15:38:38.756Z,0.00
2023-01-11T15:41:33.355Z,0.00
2023-01-11T15:44:19.607Z,0.00
2023-01-11T15:47:16.705Z,0.00
2023-01-11T15:50:18.829Z,0.00
2023-01-11T15:53:18.647Z,44.20
2023-01-11T15:56:18.923Z,45.73
2023-01-11T16:02:51.744Z,37.17
2023-01-11T16:05:25.050Z,68.00
2023-01-11T16:08:02.642Z,59.70
2023-01-11T16:11:04.295Z,53.57
2023-01-11T16:13:57.203Z,36.73
2023-01-11T16:19:21.884Z,37.07
2023-01-11T16:21:56.082Z,48.63
2023-01-11T16:24:39.395Z,39.10
2023-01-11T16:27:57.632Z,43.80
2023-01-11T16:30:28.436Z,45.20
2023-01-11T16:33:22.850Z,47.00
2023-01-11T16:35:51.003Z,75.67
2023-01-11T16:38:22.477Z,35.33
2023-01-11T16:40:54.249Z,64.03
2023-01-11T16:43:26.559Z,60.80
2023-01-11T16:45:55.670Z,41.60
2023-01-11T16:48:26.384Z,61.77
2023-01-11T16:51:03.723Z,58.40
2023-01-11T16:53:33.808Z,55.33
2023-01-11T16:56:05.653Z,52.53
2023-01-11T16:58:35.362Z,42.13
2023-01-11T17:01:05.898Z,45.50
2023-01-11T17:03:37.156Z,32.97
2023-01-11T17:06:26.867Z,47.10
2023-01-11T17:08:57.096Z,48.17
2023-01-11T17:11:30.107Z,58.27
2023-01-11T17:14:22.311Z,55.30
2023-01-11T17:16:52.996Z,66.00
2023-01-11T17:19:25.082Z,40.77
2023-01-11T17:21:54.928Z,40.03
2023-01-11T17:24:26.217Z,52.23
2023-01-11T17:26:57.700Z,73.73
2023-01-11T17:29:30.539Z,41.17
2023-01-11T17:32:00.980Z,37.37
2023-01-11T17:34:32.852Z,35.40
2023-01-11T17:37:02.685Z,48.23
2023-01-11T17:39:34.356Z,40.80
2023-01-11T17:42:23.355Z,43.17
2023-01-11T17:45:11.112Z,44.53
2023-01-11T17:47:40.407Z,47.80
2023-01-11T17:50:21.952Z,41.13
2023-01-11T17:52:57.359Z,32.07
2023-01-11T17:55:29.303Z,32.93
2023-01-11T17:58:19.252Z,32.90
2023-01-11T18:01:10.825Z,42.40
2023-01-11T18:03:43.198Z,35.63
2023-01-11T18:06:15.550Z,28.67
2023-01-11T18:08:49.025Z,60.87
2023-01-11T18:11:24.507Z,56.70
2023-01-11T18:13:54.416Z,36.53
2023-01-11T18:16:23.892Z,61.90
2023-01-11T18:19:05.415Z,42.57
2023-01-11T18:21:51.978Z,61.07
2023-01-11T18:24:35.326Z,57.00
2023-01-11T18:27:18.974Z,59.50
2023-01-11T18:29:49.825Z,37.43
2023-01-11T18:32:18.958Z,54.40
2023-01-11T18:34:50.168Z,43.50
2023-01-11T18:37:20.455Z,34.07
2023-01-11T18:39:48.589Z,53.47
2023-01-11T18:42:19.664Z,34.43
2023-01-11T18:44:49.594Z,32.83
2023-01-11T18:47:20.083Z,42.77
2023-01-11T18:49:48.632Z,47.37
2023-01-11T18:52:17.160Z,54.77
2023-01-11T18:54:46.938Z,50.77
2023-01-11T18:57:14.918Z,47.47
2023-01-11T18:59:43.038Z,57.37
2023-01-11T19:02:24.589Z,48.97
2023-01-11T19:04:54.309Z,39.00
2023-01-11T19:07:23.337Z,18.30
2023-01-11T19:09:54.926Z,25.90
2023-01-11T19:12:23.139Z,29.20
2023-01-11T19:14:51.348Z,42.03
2023-01-11T19:17:19.697Z,49.77
2023-01-11T19:19:47.582Z,46.73
2023-01-11T19:22:15.954Z,56.63
2023-01-11T19:24:43.950Z,50.50
2023-01-11T19:27:14.200Z,48.80
2023-01-11T19:29:42.452Z,32.27
2023-01-11T19:32:10.989Z,37.87
2023-01-11T19:34:39.905Z,27.60
2023-01-11T19:37:08.212Z,35.57
2023-01-11T19:39:36.713Z,33.70
2023-01-11T19:42:04.697Z,45.37
2023-01-11T19:44:35.448Z,47.20
2023-01-11T19:47:11.300Z,39.23
2023-01-11T19:49:41.104Z,43.00
2023-01-11T19:52:13.163Z,50.40
2023-01-11T19:54:42.980Z,42.20
2023-01-11T19:57:11.593Z,38.40
2023-01-11T19:59:41.309Z,50.33
2023-01-11T20:02:11.109Z,40.87
2023-01-11T20:04:38.998Z,39.97
2023-01-11T20:07:07.280Z,50.63
2023-01-11T20:09:37.616Z,52.83
2023-01-11T20:12:05.945Z,32.03
2023-01-11T20:14:34.105Z,50.20
2023-01-11T20:17:03.778Z,29.43
2023-01-11T20:19:31.873Z,28.80
2023-01-11T20:21:59.818Z,29.00
2023-01-11T20:24:30.112Z,42.30
2023-01-11T20:26:59.788Z,40.23
2023-01-11T20:29:27.882Z,49.53
2023-01-11T20:31:58.204Z,45.77
2023-01-11T20:34:32.495Z,30.20
2023-01-11T20:37:00.453Z,35.20
2023-01-11T20:39:28.542Z,38.30
2023-01-11T20:41:56.795Z,23.77
2023-01-11T20:44:28.092Z,34.10
2023-01-11T20:46:57.291Z,43.23
2023-01-11T20:49:27.713Z,56.00
2023-01-11T20:51:57.625Z,47.03
2023-01-11T20:54:25.738Z,46.50
2023-01-11T20:56:54.125Z,32.40
2023-01-11T20:59:22.101Z,28.73
2023-01-11T21:01:51.817Z,51.70
2023-01-11T21:04:20.052Z,46.97
2023-01-11T21:06:49.480Z,45.43
2023-01-11T21:09:20.013Z,41.33
2023-01-11T21:14:36.949Z,57.93
2023-01-11T21:17:05.335Z,42.60
2023-01-11T21:19:47.883Z,46.77
2023-01-11T21:22:16.076Z,32.53
2023-01-11T21:24:48.623Z,27.70
2023-01-11T21:27:19.394Z,41.93
2023-01-11T21:29:56.828Z,31.67
2023-01-11T21:32:26.501Z,21.23
2023-01-11T21:34:54.665Z,33.10
2023-01-11T21:37:28.625Z,19.30
2023-01-11T21:40:20.110Z,24.97
2023-01-11T21:43:16.385Z,30.37
2023-01-11T21:45:46.010Z,22.73
2023-01-11T21:48:21.818Z,22.43
2023-01-11T21:50:52.984Z,15.77
2023-01-11T21:53:25.345Z,32.57
2023-01-11T21:55:55.190Z,28.10
2023-01-11T21:58:32.115Z,21.77
2023-01-11T22:01:00.455Z,10.93
2023-01-11T22:03:28.869Z,12.07
2023-01-11T22:06:01.799Z,23.37
2023-01-11T22:08:30.020Z,18.27
2023-01-11T22:11:00.989Z,26.53
2023-01-11T22:13:30.292Z,25.17
2023-01-11T22:16:01.755Z,31.40
2023-01-11T22:18:30.738Z,33.93
2023-01-11T22:21:04.891Z,23.87
2023-01-11T22:23:33.022Z,39.47
2023-01-11T22:26:05.835Z,29.90
2023-01-11T22:28:56.734Z,35.87
2023-01-11T22:31:27.561Z,44.03
2023-01-11T22:33:56.287Z,45.00
2023-01-11T22:36:25.949Z,39.10
2023-01-11T22:38:54.406Z,53.17
2023-01-11T22:41:25.013Z,50.50
2023-01-11T22:43:54.277Z,38.80
2023-01-11T22:46:24.155Z,43.27
2023-01-11T22:48:53.276Z,20.03
2023-01-11T22:51:22.661Z,31.47
2023-01-11T22:53:52.069Z,23.47
2023-01-11T22:56:22.267Z,46.70
2023-01-11T22:58:52.553Z,28.67
2023-01-11T23:01:22.371Z,36.97
2023-01-11T23:03:51.050Z,37.43
2023-01-11T23:06:21.219Z,38.10
2023-01-11T23:08:59.770Z,34.17
2023-01-11T23:14:48.001Z,32.20
2023-01-11T23:17:18.890Z,31.40
2023-01-11T23:19:47.225Z,24.67
2023-01-11T23:22:16.937Z,30.60
2023-01-11T23:24:45.050Z,26.93
2023-01-11T23:27:13.540Z,25.37
2023-01-11T23:29:48.082Z,27.40
2023-01-11T23:32:16.099Z,37.90
2023-01-11T23:34:47.294Z,29.80
2023-01-11T23:37:16.927Z,32.67
2023-01-11T23:39:44.909Z,21.40
2023-01-11T23:42:30.222Z,38.50
2023-01-11T23:44:59.905Z,25.93
2023-01-11T23:47:30.040Z,28.37
2023-01-11T23:50:01.618Z,38.33
2023-01-11T23:52:31.406Z,25.47
2023-01-11T23:54:59.940Z,33.00
2023-01-11T23:57:31.641Z,26.27
